Terminal Aerodrome Forecast
Issued by NWS Grand Forks, ND

Home | Current Version | Previous Version | Graphics & Text | Print | Product List | Glossary Off
Versions: 1 2 3 4 5 6 7 8 9 10 11 12 13 14 15 16 17 18

032
FTUS43 KFGF 250520
TAFGFK
TAF
KGFK 250520Z 2506/2606 16008KT P6SM OVC009
     FM250700 17007KT P6SM SCT200
     FM251400 25013KT P6SM BKN060
     FM251600 28017G25KT P6SM OVC015
     FM251800 31023G31KT P6SM VCSH OVC015
     FM260000 31013KT P6SM BKN040=

USA.gov is the U.S. government's official web portal to all federal, state and local government web resources and services.